Time;durP1;ratioP1;P1;durP2;ratioP2;P2;SDS_P1;SDS_P2;PMS_P1;PMS_P2;Temp;Humidity;BMP_temperature;BMP_pressure;BME280_temperature;BME280_humidity;BME280_pressure;Samples;Min_cycle;Max_cycle;Signal;HPM_P1;HPM_P2
2023/09/08 00:00:26;;;;;;;3.20;2.90;;;20.10;99.90;;;;;;5002323;28;20909;-69
2023/09/08 00:02:52;;;;;;;3.78;3.30;;;20.30;99.90;;;;;;5001787;28;20307;-69
2023/09/08 00:05:19;;;;;;;3.63;3.33;;;20.40;99.90;;;;;;4999155;28;20351;-69
2023/09/08 00:07:46;;;;;;;3.63;3.33;;;20.30;99.90;;;;;;5001453;28;20220;-69
2023/09/08 00:10:13;;;;;;;3.22;3.03;;;20.30;99.90;;;;;;4999427;28;20414;-69
2023/09/08 00:12:40;;;;;;;3.50;3.20;;;20.20;99.90;;;;;;4996660;28;20774;-69
2023/09/08 00:15:11;;;;;;;3.35;3.15;;;20.20;99.90;;;;;;4983553;28;20315;-70
2023/09/08 00:17:38;;;;;;;4.05;3.72;;;20.20;99.90;;;;;;5001452;28;20283;-70
2023/09/08 00:20:09;;;;;;;3.75;3.45;;;20.20;99.90;;;;;;4984099;28;20206;-70
2023/09/08 00:22:36;;;;;;;3.60;3.30;;;20.10;99.90;;;;;;5000746;28;20749;-70
2023/09/08 00:25:04;;;;;;;3.58;3.20;;;20.10;99.90;;;;;;5001308;28;20280;-70
2023/09/08 00:27:31;;;;;;;3.75;3.33;;;20.00;99.90;;;;;;5000137;28;20196;-71
2023/09/08 00:30:01;;;;;;;3.63;3.33;;;20.00;99.90;;;;;;4998993;28;20262;-70
2023/09/08 00:32:30;;;;;;;3.00;2.80;;;20.00;99.90;;;;;;4998064;28;20212;-70
2023/09/08 00:34:57;;;;;;;3.85;3.55;;;19.90;99.90;;;;;;5002887;28;20311;-70
2023/09/08 00:37:24;;;;;;;3.85;3.55;;;19.80;99.90;;;;;;5003514;28;21988;-69
2023/09/08 00:39:51;;;;;;;3.90;3.60;;;19.80;99.90;;;;;;5000924;28;20236;-69
2023/09/08 00:42:18;;;;;;;3.40;3.10;;;19.90;99.90;;;;;;5000650;28;20240;-70
2023/09/08 00:44:45;;;;;;;3.42;3.10;;;20.00;99.90;;;;;;5001680;28;20248;-70
2023/09/08 00:47:12;;;;;;;3.35;3.05;;;20.00;99.90;;;;;;4983090;28;20232;-70
2023/09/08 00:49:40;;;;;;;4.70;3.53;;;20.00;99.90;;;;;;4998626;28;20308;-70
2023/09/08 00:52:08;;;;;;;4.30;3.90;;;20.00;99.90;;;;;;5002169;28;20291;-69
2023/09/08 00:54:35;;;;;;;3.70;3.40;;;20.00;99.90;;;;;;5002304;28;20252;-69
2023/09/08 00:57:03;;;;;;;4.13;3.83;;;19.90;99.90;;;;;;4999495;28;20431;-70
2023/09/08 00:59:32;;;;;;;3.50;3.30;;;19.80;99.90;;;;;;5000894;28;20299;-70
2023/09/08 01:02:00;;;;;;;3.47;3.17;;;19.70;99.90;;;;;;5006083;28;20327;-70
2023/09/08 01:04:27;;;;;;;3.45;3.13;;;19.80;99.90;;;;;;5002025;28;20310;-70
2023/09/08 01:06:57;;;;;;;3.63;3.33;;;19.90;99.90;;;;;;4983961;28;20235;-70
2023/09/08 01:09:25;;;;;;;3.60;3.30;;;20.00;99.90;;;;;;5001575;28;20296;-70
2023/09/08 01:11:55;;;;;;;3.38;3.13;;;20.10;99.90;;;;;;4999626;28;20295;-70
2023/09/08 01:14:22;;;;;;;3.15;2.95;;;20.10;99.90;;;;;;5004334;28;20813;-70
2023/09/08 01:16:49;;;;;;;3.60;3.30;;;20.20;99.90;;;;;;4999528;28;20380;-70
2023/09/08 01:19:17;;;;;;;2.92;2.72;;;20.30;99.90;;;;;;5000543;28;20220;-70
2023/09/08 01:22:16;;;;;;;3.42;3.22;;;20.40;99.90;;;;;;5001218;28;20815;-69
2023/09/08 01:25:10;;;;;;;3.78;3.35;;;20.40;99.90;;;;;;5001443;28;20216;-70
2023/09/08 01:27:39;;;;;;;3.10;2.90;;;20.40;99.90;;;;;;4996004;28;20236;-69
2023/09/08 01:30:08;;;;;;;3.10;2.90;;;20.40;99.90;;;;;;4999607;28;20289;-70
2023/09/08 01:32:35;;;;;;;3.50;3.20;;;20.40;99.90;;;;;;5001167;28;20744;-69
2023/09/08 01:35:03;;;;;;;3.55;3.25;;;20.40;99.90;;;;;;5002530;28;20327;-69
2023/09/08 01:37:30;;;;;;;4.18;3.13;;;20.40;99.90;;;;;;4994154;28;20255;-70
2023/09/08 01:39:57;;;;;;;3.20;3.00;;;20.40;99.90;;;;;;5003391;28;20358;-70
2023/09/08 01:42:25;;;;;;;3.15;2.92;;;20.40;99.90;;;;;;4998725;28;20201;-70
2023/09/08 01:44:52;;;;;;;2.90;2.70;;;20.30;99.90;;;;;;5003047;28;20308;-70
2023/09/08 01:47:19;;;;;;;2.92;2.72;;;20.30;99.90;;;;;;5000299;28;20282;-70
2023/09/08 01:49:46;;;;;;;3.35;3.13;;;20.30;99.90;;;;;;5003189;28;20331;-70
2023/09/08 01:52:13;;;;;;;3.20;3.00;;;20.30;99.90;;;;;;5007656;28;20232;-70
2023/09/08 01:54:40;;;;;;;3.40;3.10;;;20.30;99.90;;;;;;5006230;28;20322;-70
2023/09/08 01:57:07;;;;;;;3.15;2.95;;;20.30;99.90;;;;;;5003177;28;20263;-70
2023/09/08 01:59:36;;;;;;;3.95;2.90;;;20.30;99.90;;;;;;5006316;28;20887;-70
2023/09/08 02:02:04;;;;;;;3.13;2.90;;;20.30;99.90;;;;;;5002085;28;20214;-70
2023/09/08 02:04:31;;;;;;;3.05;2.85;;;20.20;99.90;;;;;;5004653;28;20220;-70
2023/09/08 02:06:58;;;;;;;2.95;2.75;;;20.20;99.90;;;;;;4987374;28;20303;-70
2023/09/08 02:09:32;;;;;;;3.45;3.15;;;20.20;99.90;;;;;;5004037;28;20240;-70
2023/09/08 02:12:00;;;;;;;3.03;2.83;;;20.20;99.90;;;;;;5001536;28;20200;-70
2023/09/08 02:14:27;;;;;;;3.00;2.80;;;20.20;99.90;;;;;;5003660;28;20216;-70
2023/09/08 02:16:56;;;;;;;3.17;2.97;;;20.20;99.90;;;;;;5005827;28;20214;-70
2023/09/08 02:19:23;;;;;;;3.15;2.85;;;20.20;99.90;;;;;;5004687;28;20207;-70
2023/09/08 02:21:50;;;;;;;3.17;2.97;;;20.20;99.90;;;;;;5000174;28;20296;-70
2023/09/08 02:24:17;;;;;;;2.83;2.63;;;20.10;99.90;;;;;;5004918;28;20774;-70
2023/09/08 02:26:44;;;;;;;2.95;2.75;;;20.10;99.90;;;;;;5004296;28;20196;-70
2023/09/08 02:29:11;;;;;;;3.05;2.85;;;20.10;99.90;;;;;;5004130;28;20231;-70
2023/09/08 02:31:38;;;;;;;3.30;3.10;;;20.00;99.90;;;;;;5003382;28;20224;-70
2023/09/08 02:34:07;;;;;;;3.03;2.83;;;20.00;99.90;;;;;;5005787;28;20224;-70
2023/09/08 02:36:33;;;;;;;2.80;2.60;;;20.00;99.90;;;;;;5005690;28;20247;-70
2023/09/08 02:38:59;;;;;;;2.90;2.70;;;20.00;99.90;;;;;;5004884;28;20224;-70
2023/09/08 02:41:26;;;;;;;2.90;2.70;;;20.00;99.90;;;;;;5003173;28;20231;-70
2023/09/08 02:43:53;;;;;;;3.17;2.97;;;20.00;99.90;;;;;;5002255;28;20256;-69
2023/09/08 02:46:20;;;;;;;3.33;3.10;;;20.00;99.90;;;;;;5002770;28;20259;-69
2023/09/08 02:48:47;;;;;;;3.17;2.95;;;20.00;99.90;;;;;;5002495;28;20204;-70
2023/09/08 02:51:16;;;;;;;3.22;3.03;;;20.00;99.90;;;;;;4987465;28;20285;-69
2023/09/08 02:53:43;;;;;;;3.13;2.83;;;20.00;99.90;;;;;;5005225;28;20283;-70
2023/09/08 02:56:10;;;;;;;3.60;3.30;;;20.00;99.90;;;;;;5001418;28;20251;-70
2023/09/08 02:58:37;;;;;;;3.20;3.00;;;20.00;99.90;;;;;;5002928;28;20287;-70
2023/09/08 03:01:15;;;;;;;3.28;2.97;;;19.90;99.90;;;;;;5001476;28;20232;-69
2023/09/08 03:03:42;;;;;;;3.40;3.10;;;19.90;99.90;;;;;;5004330;28;20294;-69
2023/09/08 03:06:10;;;;;;;2.70;2.50;;;19.90;99.90;;;;;;5002883;28;20484;-69
2023/09/08 03:08:38;;;;;;;3.08;2.88;;;19.80;99.90;;;;;;5003903;28;20895;-70
2023/09/08 03:11:06;;;;;;;2.95;2.75;;;19.80;99.90;;;;;;5004639;28;20682;-69
2023/09/08 03:13:34;;;;;;;2.83;2.63;;;19.80;99.90;;;;;;4985979;28;20193;-69
2023/09/08 03:16:05;;;;;;;2.80;2.60;;;19.70;99.90;;;;;;5002541;28;20654;-69
2023/09/08 03:18:32;;;;;;;3.00;2.80;;;19.70;99.90;;;;;;5003955;28;20287;-69
2023/09/08 03:21:00;;;;;;;3.17;2.95;;;19.70;99.90;;;;;;5002312;28;20735;-70
2023/09/08 03:23:27;;;;;;;3.00;2.80;;;19.70;99.90;;;;;;4986576;28;20216;-69
2023/09/08 03:25:56;;;;;;;3.00;2.80;;;19.70;99.90;;;;;;4991151;28;20251;-70
2023/09/08 03:28:23;;;;;;;3.10;2.90;;;19.70;99.90;;;;;;4997772;28;20327;-70
2023/09/08 03:30:50;;;;;;;3.03;2.83;;;19.70;99.90;;;;;;5004275;28;20298;-69
2023/09/08 03:33:17;;;;;;;3.50;3.17;;;19.60;99.90;;;;;;5003382;28;20373;-70
2023/09/08 03:35:44;;;;;;;4.90;2.97;;;19.60;99.90;;;;;;5003647;28;20922;-69
2023/09/08 03:38:11;;;;;;;3.03;2.83;;;19.60;99.90;;;;;;4996718;28;20247;-70
2023/09/08 03:40:38;;;;;;;3.50;3.20;;;19.60;99.90;;;;;;5001160;28;20295;-70
2023/09/08 03:43:07;;;;;;;3.25;3.05;;;19.60;99.90;;;;;;4998579;28;20212;-70
2023/09/08 03:45:34;;;;;;;3.42;3.22;;;19.60;99.90;;;;;;4998682;28;20224;-70
2023/09/08 03:48:01;;;;;;;3.17;2.90;;;19.50;99.90;;;;;;4997209;28;20201;-69
2023/09/08 03:50:28;;;;;;;3.20;3.00;;;19.50;99.90;;;;;;4998700;28;20323;-70
2023/09/08 03:52:55;;;;;;;3.47;3.20;;;19.40;99.90;;;;;;4997828;28;20287;-70
2023/09/08 03:55:22;;;;;;;2.90;2.70;;;19.50;99.90;;;;;;4997458;28;20294;-70
2023/09/08 03:57:49;;;;;;;3.00;2.80;;;19.40;99.90;;;;;;4999703;28;20283;-69
2023/09/08 04:00:20;;;;;;;3.25;3.00;;;19.30;99.90;;;;;;4998586;28;20284;-69
2023/09/08 04:02:47;;;;;;;3.67;3.38;;;19.40;99.90;;;;;;4999993;28;20768;-70
2023/09/08 04:05:14;;;;;;;3.28;3.03;;;19.40;99.90;;;;;;5005000;28;20303;-70
2023/09/08 04:07:41;;;;;;;3.58;3.38;;;19.30;99.90;;;;;;5004362;28;20196;-70
2023/09/08 04:10:09;;;;;;;3.25;3.05;;;19.30;99.90;;;;;;4999827;28;20232;-69
2023/09/08 04:12:36;;;;;;;3.30;3.10;;;19.40;99.90;;;;;;4998562;28;20242;-69
2023/09/08 04:15:03;;;;;;;3.30;3.00;;;19.40;99.90;;;;;;4986258;28;20299;-69
2023/09/08 04:17:32;;;;;;;3.15;2.95;;;19.50;99.90;;;;;;4997789;28;20702;-69
2023/09/08 04:19:58;;;;;;;3.35;3.15;;;19.50;99.90;;;;;;4996594;28;20205;-70
2023/09/08 04:22:25;;;;;;;3.47;3.13;;;19.50;99.90;;;;;;5000810;28;20254;-69
2023/09/08 04:24:54;;;;;;;3.50;3.20;;;19.50;99.90;;;;;;5002227;28;20313;-69
2023/09/08 04:27:21;;;;;;;3.35;3.08;;;19.40;99.90;;;;;;4999361;28;20212;-69
2023/09/08 04:29:48;;;;;;;3.13;2.90;;;19.40;99.90;;;;;;5002225;28;20224;-69
2023/09/08 04:32:14;;;;;;;3.78;3.47;;;19.30;99.90;;;;;;5000871;28;20286;-69
2023/09/08 04:34:44;;;;;;;3.42;3.13;;;19.30;99.90;;;;;;5003304;28;20220;-69
2023/09/08 04:37:11;;;;;;;3.83;3.50;;;19.30;99.90;;;;;;4996674;28;20295;-69
2023/09/08 04:39:38;;;;;;;3.25;2.95;;;19.30;99.90;;;;;;4983070;28;20284;-69
2023/09/08 04:42:05;;;;;;;3.72;3.05;;;19.30;99.90;;;;;;4995422;28;20202;-70
2023/09/08 04:44:32;;;;;;;3.20;3.00;;;19.30;99.90;;;;;;5001928;28;20303;-69
2023/09/08 04:47:00;;;;;;;3.42;3.13;;;19.30;99.90;;;;;;4997594;28;20239;-69
2023/09/08 04:49:28;;;;;;;3.30;3.10;;;19.30;99.90;;;;;;4998899;28;20204;-69
2023/09/08 04:51:57;;;;;;;3.05;2.85;;;19.30;99.90;;;;;;4997692;28;20204;-69
2023/09/08 04:54:27;;;;;;;3.22;3.03;;;19.30;99.90;;;;;;5003229;28;20239;-69
2023/09/08 04:56:54;;;;;;;3.50;3.25;;;19.30;99.90;;;;;;4995451;28;20212;-69
2023/09/08 04:59:22;;;;;;;3.90;3.60;;;19.30;99.90;;;;;;5002038;28;20200;-69
2023/09/08 05:01:49;;;;;;;3.38;3.15;;;19.20;99.90;;;;;;5003893;28;20215;-70
2023/09/08 05:04:18;;;;;;;3.45;3.15;;;19.20;99.90;;;;;;5002206;28;20220;-70
2023/09/08 05:06:45;;;;;;;3.72;3.42;;;19.10;99.90;;;;;;4999385;28;20228;-69
2023/09/08 05:09:14;;;;;;;3.30;3.10;;;19.10;99.90;;;;;;5001788;28;20645;-69
2023/09/08 05:11:41;;;;;;;3.45;3.25;;;19.10;99.90;;;;;;4985193;28;20712;-70
2023/09/08 05:14:08;;;;;;;3.33;3.08;;;19.10;99.90;;;;;;5000645;28;20270;-70
2023/09/08 05:16:45;;;;;;;3.38;3.10;;;19.10;99.90;;;;;;5000808;28;20259;-70
2023/09/08 05:19:12;;;;;;;4.00;3.60;;;19.20;99.90;;;;;;4993009;28;20211;-70
2023/09/08 05:21:41;;;;;;;3.75;3.45;;;19.30;99.90;;;;;;4996468;28;20759;-70
2023/09/08 05:24:08;;;;;;;3.85;3.55;;;19.50;99.90;;;;;;4970058;28;20228;-70
2023/09/08 05:26:39;;;;;;;4.38;3.35;;;19.70;99.90;;;;;;5003896;28;20210;-70
2023/09/08 05:29:06;;;;;;;3.72;3.42;;;19.90;99.90;;;;;;5004410;28;20606;-69
2023/09/08 05:31:33;;;;;;;4.00;3.70;;;20.20;99.90;;;;;;5005094;28;20681;-69
2023/09/08 05:34:00;;;;;;;4.03;3.67;;;20.30;99.90;;;;;;4998757;28;20334;-69
2023/09/08 05:36:29;;;;;;;4.03;3.72;;;20.50;99.90;;;;;;4999216;28;20240;-69
2023/09/08 05:38:56;;;;;;;3.90;3.60;;;20.70;99.90;;;;;;4999762;28;20239;-69
2023/09/08 05:41:23;;;;;;;4.13;3.72;;;20.90;99.90;;;;;;5000194;28;20208;-70
2023/09/08 05:43:52;;;;;;;3.67;3.40;;;21.20;99.90;;;;;;4983028;28;20208;-69
2023/09/08 05:46:19;;;;;;;4.40;4.00;;;21.50;99.90;;;;;;4998895;28;20692;-70
2023/09/08 05:48:47;;;;;;;4.57;3.35;;;21.60;99.90;;;;;;5001437;28;20249;-70
2023/09/08 05:51:14;;;;;;;3.88;3.58;;;21.80;99.90;;;;;;5001026;28;20285;-70
2023/09/08 05:53:41;;;;;;;4.47;3.90;;;21.90;99.90;;;;;;4996899;28;20678;-71
2023/09/08 05:56:08;;;;;;;4.25;3.78;;;21.90;99.90;;;;;;5001768;28;20298;-70
2023/09/08 05:58:35;;;;;;;4.05;3.75;;;22.00;99.90;;;;;;5001106;28;20286;-69
2023/09/08 06:01:04;;;;;;;4.95;4.47;;;22.10;99.90;;;;;;4999877;28;20212;-70
2023/09/08 06:03:31;;;;;;;4.47;4.03;;;22.20;99.90;;;;;;4999743;28;20200;-70
2023/09/08 06:05:58;;;;;;;4.28;3.97;;;22.30;99.90;;;;;;5001119;28;20303;-70
2023/09/08 06:08:25;;;;;;;5.22;4.15;;;22.40;99.90;;;;;;5002479;28;20332;-70
2023/09/08 06:10:53;;;;;;;4.50;4.10;;;22.40;99.90;;;;;;4984126;28;20237;-70
2023/09/08 06:13:19;;;;;;;4.70;4.30;;;22.50;99.90;;;;;;5003436;28;20441;-70
2023/09/08 06:15:46;;;;;;;5.00;4.30;;;22.50;99.90;;;;;;4982912;28;20220;-70
2023/09/08 06:18:15;;;;;;;4.78;4.13;;;22.40;99.90;;;;;;5003263;28;20769;-70
2023/09/08 06:20:46;;;;;;;4.90;4.50;;;22.30;99.90;;;;;;4999597;28;20197;-69
2023/09/08 06:23:14;;;;;;;4.53;4.15;;;22.10;99.90;;;;;;4996229;28;20201;-69
2023/09/08 06:25:41;;;;;;;4.10;3.80;;;22.00;99.90;;;;;;5002906;28;20224;-70
2023/09/08 06:28:08;;;;;;;4.40;4.00;;;22.40;99.90;;;;;;4998505;28;20205;-70
2023/09/08 06:30:35;;;;;;;4.32;4.03;;;22.90;99.90;;;;;;5001617;28;20294;-70
2023/09/08 06:33:02;;;;;;;3.80;3.50;;;23.40;99.90;;;;;;4993813;28;20236;-70
2023/09/08 06:35:31;;;;;;;4.07;3.60;;;23.80;99.90;;;;;;4995719;28;20271;-69
2023/09/08 06:37:58;;;;;;;5.13;4.18;;;24.10;99.90;;;;;;5001987;28;20214;-70
2023/09/08 06:40:25;;;;;;;4.47;4.18;;;24.30;99.90;;;;;;4997113;28;20275;-70
2023/09/08 06:42:52;;;;;;;4.45;4.05;;;24.50;99.90;;;;;;4999173;28;20226;-70
2023/09/08 06:45:19;;;;;;;4.13;3.83;;;24.50;99.90;;;;;;4999483;28;20436;-70
2023/09/08 06:47:46;;;;;;;5.68;4.18;;;24.60;99.90;;;;;;4997399;28;20681;-70
2023/09/08 06:50:13;;;;;;;5.63;4.60;;;24.60;99.90;;;;;;5001694;28;20839;-70
2023/09/08 06:52:41;;;;;;;5.10;4.63;;;24.60;99.90;;;;;;4999837;28;20948;-70
2023/09/08 06:55:09;;;;;;;4.68;4.28;;;24.40;99.90;;;;;;5000714;28;20251;-70
2023/09/08 06:57:36;;;;;;;5.45;4.30;;;24.20;99.90;;;;;;4998734;28;20203;-70
2023/09/08 07:00:07;;;;;;;5.25;4.85;;;24.20;99.90;;;;;;4995785;28;20228;-70
2023/09/08 07:02:34;;;;;;;4.80;4.40;;;24.00;99.90;;;;;;5000117;28;20208;-70
2023/09/08 07:05:06;;;;;;;5.15;4.75;;;23.80;99.90;;;;;;4999632;28;20325;-69
2023/09/08 07:07:33;;;;;;;5.35;4.85;;;24.00;99.90;;;;;;4999860;28;20236;-69
2023/09/08 07:10:02;;;;;;;6.35;5.43;;;24.30;99.90;;;;;;4997791;28;20232;-70
2023/09/08 07:12:29;;;;;;;5.28;4.88;;;24.40;99.90;;;;;;4981678;28;20322;-70
2023/09/08 07:14:56;;;;;;;5.15;4.75;;;24.50;99.90;;;;;;4999309;28;20304;-71
2023/09/08 07:17:23;;;;;;;5.20;4.70;;;24.70;99.90;;;;;;5000026;28;20292;-70
2023/09/08 07:19:50;;;;;;;5.35;4.88;;;24.80;99.90;;;;;;4996115;28;20222;-70
2023/09/08 07:22:17;;;;;;;5.07;4.68;;;24.80;99.90;;;;;;4996630;28;20228;-70
2023/09/08 07:24:45;;;;;;;5.38;4.93;;;24.80;99.90;;;;;;4999697;28;20258;-70
2023/09/08 07:27:14;;;;;;;5.35;4.95;;;24.90;99.90;;;;;;4998757;28;20234;-70
2023/09/08 07:29:41;;;;;;;4.53;4.13;;;25.00;99.90;;;;;;4998737;28;20673;-71
2023/09/08 07:32:08;;;;;;;5.18;4.22;;;24.90;99.90;;;;;;5002926;28;20295;-71
2023/09/08 07:34:35;;;;;;;4.65;4.25;;;24.90;99.90;;;;;;5000284;28;21033;-71
2023/09/08 07:37:03;;;;;;;4.50;4.10;;;24.80;99.90;;;;;;4996285;28;20779;-70
2023/09/08 07:39:30;;;;;;;6.10;5.10;;;24.60;99.90;;;;;;4999774;28;20236;-70
2023/09/08 07:41:57;;;;;;;5.32;4.60;;;24.80;99.90;;;;;;5002593;28;20212;-70
2023/09/08 07:44:25;;;;;;;4.78;4.30;;;24.80;99.90;;;;;;5001312;28;20259;-70
2023/09/08 07:46:55;;;;;;;4.53;4.13;;;25.10;99.90;;;;;;4994425;28;20246;-70
2023/09/08 07:49:23;;;;;;;4.93;4.53;;;25.50;99.90;;;;;;4998453;28;20291;-70
2023/09/08 07:51:50;;;;;;;4.65;4.25;;;25.40;99.90;;;;;;4998300;28;20220;-69
2023/09/08 07:54:17;;;;;;;5.18;4.68;;;25.30;99.90;;;;;;4997136;28;20334;-70
2023/09/08 07:56:44;;;;;;;4.75;4.38;;;25.20;99.90;;;;;;4997275;28;20796;-71
2023/09/08 07:59:11;;;;;;;6.80;4.72;;;25.10;99.90;;;;;;4999755;28;20670;-71
2023/09/08 08:01:39;;;;;;;6.10;5.50;;;25.10;99.90;;;;;;4997221;28;20843;-71
2023/09/08 08:04:06;;;;;;;4.68;4.28;;;25.20;99.90;;;;;;4995332;28;20316;-71
2023/09/08 08:06:33;;;;;;;5.85;5.22;;;25.10;99.90;;;;;;4981915;28;20307;-71
2023/09/08 08:09:00;;;;;;;5.95;4.75;;;25.40;99.90;;;;;;4996057;28;20325;-71
2023/09/08 08:11:27;;;;;;;9.50;6.13;;;25.80;99.90;;;;;;4996278;28;20812;-71
2023/09/08 08:13:56;;;;;;;6.78;5.00;;;26.00;99.90;;;;;;4994399;28;20235;-71
2023/09/08 08:16:24;;;;;;;10.00;4.95;;;26.40;99.90;;;;;;4995112;28;20292;-71
2023/09/08 08:18:53;;;;;;;4.68;4.28;;;26.60;99.90;;;;;;4996598;28;20212;-71
2023/09/08 08:21:20;;;;;;;4.65;4.25;;;26.70;99.90;;;;;;4993210;28;20292;-71
2023/09/08 08:23:47;;;;;;;6.28;4.43;;;26.80;99.90;;;;;;4996696;28;20207;-71
2023/09/08 08:26:14;;;;;;;5.30;4.70;;;26.90;99.90;;;;;;4997890;28;20294;-71
2023/09/08 08:28:41;;;;;;;6.85;4.72;;;27.10;99.90;;;;;;4999962;28;20283;-71
2023/09/08 08:31:08;;;;;;;4.90;4.40;;;27.10;99.90;;;;;;4996756;28;20295;-71
2023/09/08 08:33:35;;;;;;;7.40;4.97;;;26.90;99.90;;;;;;4997901;28;20734;-71
2023/09/08 08:36:04;;;;;;;5.70;5.20;;;26.70;99.90;;;;;;4992122;28;20299;-71
2023/09/08 08:38:31;;;;;;;5.30;4.70;;;26.80;99.90;;;;;;4997244;28;20247;-71
2023/09/08 08:41:04;;;;;;;4.90;4.50;;;26.80;99.90;;;;;;4991720;28;20286;-71
2023/09/08 08:43:32;;;;;;;7.55;4.72;;;27.10;99.90;;;;;;4998168;28;20310;-71
2023/09/08 08:46:00;;;;;;;4.90;4.40;;;27.10;99.90;;;;;;4998753;28;20307;-71
2023/09/08 08:48:30;;;;;;;5.00;4.30;;;27.20;99.90;;;;;;4996838;28;20287;-71
2023/09/08 08:50:58;;;;;;;5.18;4.78;;;27.10;99.90;;;;;;4999151;28;20244;-71
2023/09/08 08:53:27;;;;;;;5.97;4.90;;;27.20;99.90;;;;;;4996836;28;20299;-71
2023/09/08 08:55:58;;;;;;;4.80;4.15;;;26.90;99.90;;;;;;4994479;28;20220;-71
2023/09/08 08:58:27;;;;;;;5.95;5.00;;;27.00;99.90;;;;;;4994375;28;20875;-71
2023/09/08 09:00:56;;;;;;;4.60;4.13;;;27.00;99.90;;;;;;4990780;28;20212;-71
2023/09/08 09:03:27;;;;;;;6.13;4.55;;;27.10;99.90;;;;;;4997677;28;20205;-71
2023/09/08 09:05:54;;;;;;;4.90;4.50;;;27.40;99.90;;;;;;4995571;28;20224;-71
2023/09/08 09:08:23;;;;;;;4.75;4.35;;;27.40;99.90;;;;;;4989461;28;20240;-71
2023/09/08 09:10:51;;;;;;;5.20;4.55;;;27.40;99.90;;;;;;4993932;28;20231;-71
2023/09/08 09:13:18;;;;;;;5.03;4.60;;;27.50;99.90;;;;;;4995131;28;20966;-71
2023/09/08 09:15:46;;;;;;;5.30;4.80;;;27.40;99.90;;;;;;4991610;28;20299;-71
2023/09/08 09:18:13;;;;;;;5.82;5.15;;;27.50;99.90;;;;;;4997554;28;20204;-71
2023/09/08 09:20:41;;;;;;;5.80;4.90;;;27.40;99.90;;;;;;4998977;28;20668;-71
2023/09/08 09:23:08;;;;;;;4.70;4.25;;;27.40;99.90;;;;;;4978294;28;20211;-71
2023/09/08 09:25:36;;;;;;;4.75;4.35;;;27.60;99.90;;;;;;4996383;28;20713;-71
2023/09/08 09:28:05;;;;;;;5.00;4.60;;;28.00;99.90;;;;;;4981541;28;20208;-71
2023/09/08 09:30:48;;;;;;;5.05;4.65;;;28.00;99.90;;;;;;4997365;28;20216;-71
2023/09/08 09:33:15;;;;;;;5.60;5.10;;;27.90;99.90;;;;;;4998484;28;20204;-71
2023/09/08 09:35:44;;;;;;;4.80;4.40;;;27.70;99.90;;;;;;4996027;28;20472;-71
2023/09/08 09:38:11;;;;;;;4.88;4.38;;;27.60;99.90;;;;;;4993802;28;20798;-71
2023/09/08 09:40:39;;;;;;;5.18;4.68;;;27.50;99.90;;;;;;4994200;28;20236;-71
2023/09/08 09:43:09;;;;;;;5.10;4.70;;;27.60;99.90;;;;;;4981897;28;20204;-71
2023/09/08 09:45:38;;;;;;;5.38;4.63;;;27.80;99.90;;;;;;4999271;28;20307;-71
2023/09/08 09:48:07;;;;;;;6.85;4.35;;;27.90;99.90;;;;;;4993649;28;20236;-71
2023/09/08 09:50:35;;;;;;;5.65;5.05;;;28.00;99.90;;;;;;4996206;28;20294;-71
2023/09/08 09:53:08;;;;;;;5.55;5.03;;;28.00;99.90;;;;;;5000376;28;20267;-71
2023/09/08 09:55:37;;;;;;;4.90;4.40;;;28.00;99.90;;;;;;5002170;28;20247;-71
2023/09/08 09:58:05;;;;;;;6.00;4.78;;;28.00;99.90;;;;;;4977654;28;20283;-71
2023/09/08 10:00:36;;;;;;;4.75;4.35;;;28.10;99.90;;;;;;4995186;28;20201;-71
2023/09/08 10:03:05;;;;;;;5.05;4.65;;;27.90;99.90;;;;;;4997305;28;20204;-71
2023/09/08 10:05:32;;;;;;;4.88;4.47;;;27.80;99.90;;;;;;4995190;28;20839;-71
2023/09/08 10:08:00;;;;;;;5.03;4.63;;;27.60;99.90;;;;;;4984417;28;20201;-71
2023/09/08 10:10:30;;;;;;;5.22;4.32;;;27.70;99.90;;;;;;4996879;28;20784;-71
2023/09/08 10:13:03;;;;;;;4.85;4.45;;;27.70;99.90;;;;;;5001057;28;20228;-71
2023/09/08 10:15:34;;;;;;;6.28;4.65;;;28.00;99.90;;;;;;5001333;28;20219;-71
2023/09/08 10:18:05;;;;;;;5.70;4.55;;;28.20;99.90;;;;;;5002819;28;20240;-71
2023/09/08 10:20:35;;;;;;;5.35;4.95;;;28.30;99.90;;;;;;4981540;28;20279;-71
2023/09/08 10:23:08;;;;;;;4.63;4.03;;;28.40;99.90;;;;;;5002802;28;20203;-71
2023/09/08 10:25:40;;;;;;;4.35;3.95;;;28.50;99.90;;;;;;4999841;28;20224;-71
2023/09/08 10:28:07;;;;;;;4.95;4.20;;;28.80;99.90;;;;;;4995086;28;20224;-71
2023/09/08 10:30:37;;;;;;;4.75;4.35;;;29.00;99.90;;;;;;4995838;28;20244;-71
2023/09/08 10:33:06;;;;;;;4.68;4.28;;;28.90;99.90;;;;;;5001397;28;20291;-71
2023/09/08 10:35:33;;;;;;;4.40;4.10;;;28.90;99.90;;;;;;4981248;28;20304;-72
2023/09/08 10:38:32;;;;;;;4.28;3.88;;;29.10;99.90;;;;;;5001959;28;20682;-71
2023/09/08 10:41:28;;;;;;;4.53;4.13;;;29.40;99.90;;;;;;4989193;28;20205;-71
2023/09/08 10:43:57;;;;;;;5.07;4.22;;;29.70;99.90;;;;;;4989194;28;20234;-71
2023/09/08 10:46:28;;;;;;;4.40;4.00;;;29.60;99.90;;;;;;4996282;28;20216;-71
2023/09/08 10:48:55;;;;;;;4.60;4.20;;;29.50;99.90;;;;;;4997980;28;20300;-71
2023/09/08 10:51:25;;;;;;;4.70;4.30;;;29.40;99.90;;;;;;4999873;28;20925;-71
2023/09/08 10:53:52;;;;;;;4.35;4.05;;;29.40;99.90;;;;;;4996883;28;20306;-71
2023/09/08 10:56:19;;;;;;;6.22;4.30;;;29.00;99.90;;;;;;4999092;28;20396;-71
2023/09/08 10:58:51;;;;;;;4.10;3.80;;;28.70;99.90;;;;;;4998483;28;20313;-71
2023/09/08 11:01:22;;;;;;;4.50;4.05;;;28.80;99.90;;;;;;4999068;28;20192;-72
2023/09/08 11:03:51;;;;;;;4.63;4.22;;;28.70;99.90;;;;;;4999500;28;20657;-71
2023/09/08 11:06:18;;;;;;;4.57;4.28;;;28.90;99.90;;;;;;5002483;28;20220;-71
2023/09/08 11:08:46;;;;;;;4.60;4.20;;;28.80;99.90;;;;;;5001053;28;20201;-71
2023/09/08 11:11:14;;;;;;;5.00;4.60;;;28.70;99.90;;;;;;5000978;28;21336;-70
2023/09/08 11:13:45;;;;;;;5.15;4.63;;;28.60;99.90;;;;;;4981081;28;20281;-71
2023/09/08 11:16:12;;;;;;;4.78;4.07;;;28.50;99.90;;;;;;4984168;28;20204;-71
2023/09/08 11:18:41;;;;;;;4.35;3.90;;;28.70;99.90;;;;;;4997396;28;20200;-72
2023/09/08 11:21:11;;;;;;;4.47;4.18;;;28.90;99.90;;;;;;4981706;28;20216;-71
2023/09/08 11:23:39;;;;;;;4.60;4.20;;;29.00;99.90;;;;;;4981916;28;20247;-71
2023/09/08 11:26:08;;;;;;;5.38;4.88;;;28.90;99.90;;;;;;4998830;28;20298;-71
2023/09/08 11:28:35;;;;;;;4.68;4.28;;;28.70;99.90;;;;;;4996870;28;20658;-71
2023/09/08 11:31:04;;;;;;;5.18;4.70;;;28.80;99.90;;;;;;4998199;28;20960;-71
2023/09/08 11:33:39;;;;;;;4.53;4.22;;;28.90;99.90;;;;;;4997598;28;20284;-71
2023/09/08 11:36:15;;;;;;;5.13;4.72;;;29.00;99.90;;;;;;4998423;28;20777;-71
2023/09/08 11:38:44;;;;;;;4.65;4.20;;;29.00;99.90;;;;;;4996214;28;20207;-71
2023/09/08 11:41:11;;;;;;;4.47;4.07;;;28.90;99.90;;;;;;4998321;28;20682;-71
2023/09/08 11:43:38;;;;;;;4.60;4.20;;;29.00;99.90;;;;;;4998536;28;20232;-70
2023/09/08 11:46:06;;;;;;;5.30;4.80;;;29.10;99.90;;;;;;4995278;28;20227;-70
2023/09/08 11:48:33;;;;;;;6.32;4.70;;;28.90;99.90;;;;;;4996897;28;20843;-70
2023/09/08 11:51:00;;;;;;;5.68;4.90;;;28.70;99.90;;;;;;4996345;28;20960;-71
2023/09/08 11:53:29;;;;;;;5.50;5.00;;;28.50;99.90;;;;;;4996300;28;20803;-70
2023/09/08 11:55:56;;;;;;;4.68;4.28;;;28.50;99.90;;;;;;4986308;28;20705;-71
2023/09/08 11:58:23;;;;;;;5.22;4.82;;;28.60;99.90;;;;;;4998676;28;20306;-71
2023/09/08 12:00:51;;;;;;;4.25;3.85;;;28.70;99.90;;;;;;4980020;28;20270;-71
2023/09/08 12:03:18;;;;;;;8.25;5.07;;;28.80;99.90;;;;;;4995961;28;20203;-71
2023/09/08 12:05:51;;;;;;;5.18;4.63;;;28.80;99.90;;;;;;4997439;28;20248;-71
2023/09/08 12:08:18;;;;;;;4.60;4.30;;;29.00;99.90;;;;;;4998566;28;20200;-71
2023/09/08 12:10:47;;;;;;;4.45;4.05;;;29.20;99.90;;;;;;4999641;28;20301;-72
2023/09/08 12:13:16;;;;;;;7.38;4.50;;;29.30;99.90;;;;;;4997524;28;20282;-72
2023/09/08 12:15:44;;;;;;;4.82;4.43;;;29.30;99.90;;;;;;4963367;28;20633;-71
2023/09/08 12:18:12;;;;;;;4.53;4.13;;;29.30;99.90;;;;;;4995803;28;20193;-71
2023/09/08 12:20:40;;;;;;;3.47;3.17;;;29.40;99.90;;;;;;4998426;28;20231;-71
2023/09/08 12:23:18;;;;;;;4.03;3.72;;;29.50;99.90;;;;;;4993363;28;20243;-71
2023/09/08 12:25:48;;;;;;;4.35;3.95;;;29.50;99.90;;;;;;4996417;28;20537;-71
2023/09/08 12:28:17;;;;;;;4.18;3.80;;;29.70;99.90;;;;;;4989722;28;20252;-71
2023/09/08 12:30:44;;;;;;;4.22;3.90;;;29.80;99.90;;;;;;4995907;28;20240;-71
2023/09/08 12:33:13;;;;;;;4.18;3.88;;;29.90;99.90;;;;;;4994839;28;20242;-71
2023/09/08 12:35:40;;;;;;;4.30;4.00;;;29.90;99.90;;;;;;4976358;28;20316;-71
2023/09/08 12:38:07;;;;;;;3.78;3.40;;;29.90;99.90;;;;;;4994721;28;20261;-71
2023/09/08 12:40:36;;;;;;;4.20;3.80;;;29.60;99.90;;;;;;4993810;28;20612;-71
2023/09/08 12:43:05;;;;;;;5.03;4.10;;;29.70;99.90;;;;;;4993592;28;20274;-71
2023/09/08 12:45:32;;;;;;;4.30;4.00;;;29.70;99.90;;;;;;4993527;28;20904;-71
2023/09/08 12:48:01;;;;;;;3.40;3.20;;;29.90;99.90;;;;;;4974466;28;20251;-72
2023/09/08 12:50:28;;;;;;;5.38;4.10;;;30.10;99.90;;;;;;4995965;28;20218;-72
2023/09/08 12:52:55;;;;;;;4.00;3.67;;;30.30;99.90;;;;;;4991995;28;20228;-72